KALN/ALN METAR and TAF weather

Enter ICAO airport designator
Station Type Date Time Source
KALN METAR 2020/01/20 15:50 UTC NOAA

KALN 201550Z 34004KT 10SM FEW014 SCT150 M09/M12 A3067


Station Type Date Time Source
KALN Decoded METAR 2020/01/20 15:50 UTC NOAA

Alton/St. Louis, St. Louis Regional Airport, IL, United States (KALN) 38-54N 090-03W
Jan 20, 2020 - 10:50 AM EST / 2020.01.20 1550 UTC
Wind: from the NNW (340 degrees) at 5 MPH (4 KT):0
Visibility: 10 mile(s):0
Sky conditions: partly cloudy
Temperature: 15 F (-9 C)
Windchill: 6 F (-14 C):1
Dew Point: 10 F (-12 C)
Relative Humidity: 78%
Pressure (altimeter): 30.67 in. Hg (1038 hPa)
ob: KALN 201550Z 34004KT 10SM FEW014 SCT150 M09/M12 A3067
cycle: 16

Station Type Date Time Source
KALN TAF UTC NOAA

Error!

Example: see airport list